createdAt,value
2023-04-26T00:00:49.242Z,6.40
2023-04-26T00:06:05.328Z,7.00
2023-04-26T00:11:13.514Z,5.50
2023-04-26T00:16:16.042Z,6.00
2023-04-26T00:22:05.961Z,6.10
2023-04-26T00:32:46.383Z,5.70
2023-04-26T00:37:51.675Z,4.50
2023-04-26T00:44:20.090Z,5.30
2023-04-26T00:49:46.608Z,5.30
2023-04-26T00:55:13.717Z,7.20
2023-04-26T01:01:18.271Z,7.10
2023-04-26T01:07:42.392Z,5.80
2023-04-26T01:13:17.669Z,6.30
2023-04-26T01:19:07.391Z,7.50
2023-04-26T01:24:16.267Z,7.10
2023-04-26T01:29:55.210Z,6.50
2023-04-26T01:35:03.242Z,5.70
2023-04-26T01:40:32.338Z,6.20
2023-04-26T01:46:02.021Z,6.40
2023-04-26T01:51:57.099Z,7.30
2023-04-26T02:03:25.591Z,6.40
2023-04-26T02:09:53.309Z,6.90
2023-04-26T02:16:19.222Z,6.80
2023-04-26T02:22:54.627Z,5.90
2023-04-26T02:28:07.607Z,6.50
2023-04-26T02:34:02.720Z,6.60
2023-04-26T02:40:07.418Z,8.30
2023-04-26T02:45:50.349Z,7.50
2023-04-26T02:51:53.110Z,7.80
2023-04-26T02:57:33.546Z,7.20
2023-04-26T03:02:39.006Z,7.60
2023-04-26T03:08:50.386Z,7.40
2023-04-26T03:14:34.051Z,7.50
2023-04-26T03:20:07.081Z,7.10
2023-04-26T03:25:46.569Z,8.00
2023-04-26T03:31:22.319Z,7.50
2023-04-26T03:37:40.595Z,9.30
2023-04-26T03:43:16.003Z,8.40
2023-04-26T03:49:43.488Z,8.40
2023-04-26T03:56:38.389Z,8.40
2023-04-26T04:02:23.505Z,10.60
2023-04-26T04:08:28.836Z,10.30
2023-04-26T04:14:20.106Z,9.80
2023-04-26T04:19:32.272Z,9.40
2023-04-26T04:25:10.472Z,7.80
2023-04-26T04:31:03.037Z,8.70
2023-04-26T04:36:48.381Z,9.40
2023-04-26T04:42:28.232Z,8.50
2023-04-26T04:47:41.246Z,6.30
2023-04-26T04:53:00.105Z,7.20
2023-04-26T04:58:37.478Z,6.80
2023-04-26T05:03:53.347Z,7.70
2023-04-26T05:09:05.265Z,7.90
2023-04-26T05:14:30.554Z,6.80
2023-04-26T05:20:16.256Z,7.30
2023-04-26T05:26:02.517Z,6.00
2023-04-26T05:32:27.506Z,6.00
2023-04-26T05:38:50.219Z,4.70
2023-04-26T05:44:10.843Z,5.60
2023-04-26T05:49:47.887Z,5.30
2023-04-26T05:55:43.570Z,4.10
2023-04-26T06:00:53.515Z,4.20
2023-04-26T06:06:50.516Z,3.90
2023-04-26T06:12:26.219Z,3.50
2023-04-26T06:18:36.930Z,3.50
2023-04-26T06:23:55.432Z,3.10
2023-04-26T06:29:58.433Z,3.60
2023-04-26T06:35:48.343Z,3.90
2023-04-26T06:41:05.341Z,4.00
2023-04-26T06:46:29.320Z,3.40
2023-04-26T06:52:54.148Z,3.70
2023-04-26T06:59:03.366Z,3.30
2023-04-26T07:04:35.131Z,3.10
2023-04-26T07:09:37.544Z,2.90
2023-04-26T07:15:13.621Z,3.60
2023-04-26T07:21:47.048Z,3.80
2023-04-26T07:27:23.222Z,4.20
2023-04-26T07:34:14.574Z,3.20
2023-04-26T07:40:57.172Z,4.30
2023-04-26T07:46:30.136Z,4.70
2023-04-26T07:52:06.344Z,3.30
2023-04-26T07:57:18.743Z,2.90
2023-04-26T08:04:07.654Z,3.70
2023-04-26T08:09:32.635Z,3.70
2023-04-26T08:14:40.519Z,3.50
2023-04-26T08:19:48.800Z,3.00
2023-04-26T08:24:56.200Z,3.80
2023-04-26T08:30:35.500Z,4.40
2023-04-26T08:35:45.392Z,3.50
2023-04-26T08:41:44.881Z,3.30
2023-04-26T08:47:23.373Z,3.50
2023-04-26T08:53:39.329Z,3.30
2023-04-26T08:58:57.637Z,3.90
2023-04-26T09:04:48.677Z,3.50
2023-04-26T09:10:47.215Z,3.30
2023-04-26T09:15:58.827Z,3.30
2023-04-26T09:22:19.812Z,3.10
2023-04-26T09:27:55.440Z,3.30
2023-04-26T09:33:36.455Z,2.40
2023-04-26T09:39:14.435Z,2.90
2023-04-26T09:44:25.013Z,2.80
2023-04-26T09:49:32.006Z,2.90
2023-04-26T09:55:10.031Z,2.40
2023-04-26T10:01:15.941Z,2.10
2023-04-26T10:06:26.923Z,2.20
2023-04-26T10:11:56.469Z,2.00
2023-04-26T10:18:23.194Z,2.10
2023-04-26T10:24:49.422Z,2.10
2023-04-26T10:31:15.636Z,2.60
2023-04-26T10:37:17.728Z,2.10
2023-04-26T10:42:30.264Z,2.40
2023-04-26T10:49:08.300Z,2.10
2023-04-26T10:54:22.897Z,2.00
2023-04-26T11:00:30.013Z,1.70
2023-04-26T11:06:23.534Z,2.30
2023-04-26T11:11:55.827Z,2.40
2023-04-26T11:17:38.834Z,2.20
2023-04-26T11:23:13.865Z,2.10
2023-04-26T11:28:45.041Z,1.60
2023-04-26T11:35:08.060Z,2.20
2023-04-26T11:40:26.234Z,2.30
2023-04-26T11:45:51.830Z,1.90
2023-04-26T11:51:55.055Z,2.00
2023-04-26T11:57:28.700Z,1.70
2023-04-26T12:02:36.112Z,1.50
2023-04-26T12:08:30.134Z,2.10
2023-04-26T12:14:38.545Z,2.30
2023-04-26T12:20:37.432Z,1.80
2023-04-26T12:25:57.999Z,1.90
2023-04-26T12:31:52.729Z,1.60
2023-04-26T12:38:04.737Z,1.60
2023-04-26T12:44:10.712Z,2.30
2023-04-26T12:50:00.239Z,2.10
2023-04-26T12:56:16.153Z,1.20
2023-04-26T13:01:34.119Z,2.30
2023-04-26T13:07:00.130Z,2.40
2023-04-26T13:12:42.107Z,2.40
2023-04-26T13:18:13.586Z,1.80
2023-04-26T13:23:31.982Z,1.70
2023-04-26T13:28:55.977Z,2.90
2023-04-26T13:35:00.550Z,2.50
2023-04-26T13:40:34.338Z,1.90
2023-04-26T13:45:43.565Z,1.90
2023-04-26T13:50:58.835Z,2.00
2023-04-26T13:56:41.673Z,1.60
2023-04-26T14:03:08.491Z,3.00
2023-04-26T14:08:51.898Z,2.40
2023-04-26T14:14:57.639Z,2.40
2023-04-26T14:21:10.066Z,1.70
2023-04-26T14:27:09.408Z,2.10
2023-04-26T14:32:54.448Z,2.10
2023-04-26T14:38:09.622Z,2.10
2023-04-26T14:43:52.183Z,2.20
2023-04-26T14:49:20.332Z,2.20
2023-04-26T14:54:58.990Z,2.30
2023-04-26T15:05:23.937Z,2.30
2023-04-26T15:10:32.314Z,2.40
2023-04-26T15:16:07.987Z,2.30
2023-04-26T15:21:40.122Z,2.00
2023-04-26T15:27:22.996Z,2.30
2023-04-26T15:32:48.989Z,3.20
2023-04-26T15:37:56.387Z,2.60
2023-04-26T15:43:17.933Z,2.30
2023-04-26T15:48:40.740Z,2.60
2023-04-26T15:54:19.771Z,2.90
2023-04-26T16:00:05.322Z,2.70
2023-04-26T16:05:09.640Z,2.50
2023-04-26T16:10:14.236Z,2.70
2023-04-26T16:15:16.679Z,2.40
2023-04-26T16:20:30.545Z,2.90
2023-04-26T16:26:16.112Z,2.40
2023-04-26T16:31:18.444Z,3.10
2023-04-26T16:36:40.150Z,2.50
2023-04-26T16:42:04.636Z,3.10
2023-04-26T16:47:33.480Z,3.10
2023-04-26T16:52:40.240Z,2.80
2023-04-26T16:58:02.376Z,2.80
2023-04-26T17:03:48.175Z,3.00
2023-04-26T17:08:53.268Z,2.80
2023-04-26T17:14:42.202Z,3.10
2023-04-26T17:20:17.341Z,3.10
2023-04-26T17:25:41.888Z,2.90
2023-04-26T17:31:09.201Z,3.20
2023-04-26T17:36:27.446Z,3.40
2023-04-26T17:42:22.819Z,3.10
2023-04-26T17:47:54.294Z,3.40
2023-04-26T17:53:05.439Z,3.60
2023-04-26T17:59:14.267Z,3.70
2023-04-26T18:05:31.334Z,3.80
2023-04-26T18:11:49.635Z,8.10
2023-04-26T18:17:43.116Z,4.20
2023-04-26T18:23:33.589Z,4.70
2023-04-26T18:30:06.176Z,4.70
2023-04-26T18:37:29.002Z,5.10
2023-04-26T18:44:01.245Z,5.00
2023-04-26T18:49:49.488Z,5.00
2023-04-26T18:55:42.311Z,5.70
2023-04-26T19:02:03.887Z,5.80
2023-04-26T19:08:46.735Z,6.60
2023-04-26T19:15:35.959Z,8.40
2023-04-26T19:22:03.753Z,9.60
2023-04-26T19:29:07.030Z,10.50
2023-04-26T19:35:49.990Z,11.70
2023-04-26T19:42:32.885Z,12.80
2023-04-26T19:48:42.564Z,11.50
2023-04-26T19:54:07.647Z,15.60
2023-04-26T19:59:23.255Z,17.70
2023-04-26T20:05:58.892Z,17.50
2023-04-26T20:12:06.966Z,16.60
2023-04-26T20:17:33.248Z,13.80
2023-04-26T20:23:53.806Z,13.40
2023-04-26T20:30:42.583Z,12.50
2023-04-26T20:37:07.204Z,11.00
2023-04-26T20:43:04.640Z,10.80
2023-04-26T20:49:40.502Z,13.00
2023-04-26T20:55:55.950Z,12.10
2023-04-26T21:02:38.994Z,17.50
2023-04-26T21:08:57.892Z,20.80
2023-04-26T21:14:47.567Z,20.20
2023-04-26T21:20:57.008Z,20.00
2023-04-26T21:27:55.489Z,23.60
2023-04-26T21:34:55.278Z,26.50
2023-04-26T21:41:24.382Z,23.90
2023-04-26T21:47:50.400Z,23.60
2023-04-26T21:54:09.627Z,21.70
2023-04-26T22:01:12.159Z,22.20
2023-04-26T22:07:54.440Z,20.50
2023-04-26T22:14:37.147Z,19.60
2023-04-26T22:20:13.487Z,20.50
2023-04-26T22:26:28.326Z,22.60
2023-04-26T22:32:43.090Z,22.10
2023-04-26T22:39:39.132Z,22.00
2023-04-26T22:47:03.588Z,22.40
2023-04-26T22:53:17.680Z,21.00
2023-04-26T22:59:35.688Z,21.50
2023-04-26T23:05:40.890Z,20.70
2023-04-26T23:11:15.092Z,20.80
2023-04-26T23:17:39.817Z,17.70
2023-04-26T23:23:30.369Z,18.60
2023-04-26T23:35:32.503Z,15.30
2023-04-26T23:41:16.885Z,17.00
2023-04-26T23:48:20.404Z,16.00
2023-04-26T23:54:51.887Z,16.60
